sensor_id;sensor_type;location;lat;lon;timestamp;pressure;altitude;pressure_sealevel;temperature;humidity
34921;BME280;21128;50.016;20.002;2022-12-31T00:01:46;98994.23;;;0.27;100.00
34921;BME280;21128;50.016;20.002;2022-12-31T00:04:32;98994.16;;;0.29;100.00
34921;BME280;21128;50.016;20.002;2022-12-31T00:07:19;98993.33;;;0.28;100.00
34921;BME280;21128;50.016;20.002;2022-12-31T00:10:05;98987.24;;;0.30;100.00
34921;BME280;21128;50.016;20.002;2022-12-31T00:12:51;98988.91;;;0.31;100.00
34921;BME280;21128;50.016;20.002;2022-12-31T00:16:05;98988.00;;;0.32;100.00
34921;BME280;21128;50.016;20.002;2022-12-31T00:18:55;98992.33;;;0.31;100.00
34921;BME280;21128;50.016;20.002;2022-12-31T00:21:43;98998.34;;;0.32;100.00
34921;BME280;21128;50.016;20.002;2022-12-31T00:24:29;98990.50;;;0.33;100.00
34921;BME280;21128;50.016;20.002;2022-12-31T00:27:16;99002.46;;;0.36;100.00
34921;BME280;21128;50.016;20.002;2022-12-31T00:30:09;99000.47;;;0.41;100.00
34921;BME280;21128;50.016;20.002;2022-12-31T00:32:55;98995.17;;;0.44;100.00
34921;BME280;21128;50.016;20.002;2022-12-31T00:35:40;98987.41;;;0.44;100.00
34921;BME280;21128;50.016;20.002;2022-12-31T00:38:26;98986.50;;;0.45;100.00
34921;BME280;21128;50.016;20.002;2022-12-31T00:41:13;98995.01;;;0.47;100.00
34921;BME280;21128;50.016;20.002;2022-12-31T00:43:59;98994.93;;;0.48;100.00
34921;BME280;21128;50.016;20.002;2022-12-31T00:46:45;98998.22;;;0.52;100.00
34921;BME280;21128;50.016;20.002;2022-12-31T00:49:32;99000.56;;;0.56;100.00
34921;BME280;21128;50.016;20.002;2022-12-31T00:52:18;99004.06;;;0.55;100.00
34921;BME280;21128;50.016;20.002;2022-12-31T00:55:11;98997.30;;;0.53;100.00
34921;BME280;21128;50.016;20.002;2022-12-31T00:57:57;98999.05;;;0.52;100.00
34921;BME280;21128;50.016;20.002;2022-12-31T01:00:49;98993.97;;;0.51;100.00
34921;BME280;21128;50.016;20.002;2022-12-31T01:03:36;98993.88;;;0.52;100.00
34921;BME280;21128;50.016;20.002;2022-12-31T01:06:22;98993.64;;;0.57;100.00
34921;BME280;21128;50.016;20.002;2022-12-31T01:09:09;98979.13;;;0.54;100.00
34921;BME280;21128;50.016;20.002;2022-12-31T01:11:55;98969.61;;;0.55;100.00
34921;BME280;21128;50.016;20.002;2022-12-31T01:14:47;98973.73;;;0.59;100.00
34921;BME280;21128;50.016;20.002;2022-12-31T01:17:40;98962.48;;;0.60;100.00
34921;BME280;21128;50.016;20.002;2022-12-31T01:20:26;98968.23;;;0.65;100.00
34921;BME280;21128;50.016;20.002;2022-12-31T01:23:12;98973.58;;;0.62;100.00
34921;BME280;21128;50.016;20.002;2022-12-31T01:25:59;98966.73;;;0.61;100.00
34921;BME280;21128;50.016;20.002;2022-12-31T01:28:45;98966.65;;;0.63;100.00
34921;BME280;21128;50.016;20.002;2022-12-31T01:31:38;98968.48;;;0.61;100.00
34921;BME280;21128;50.016;20.002;2022-12-31T01:34:24;98972.66;;;0.63;100.00
34921;BME280;21128;50.016;20.002;2022-12-31T01:37:11;98962.23;;;0.65;100.00
34921;BME280;21128;50.016;20.002;2022-12-31T01:39:58;98960.39;;;0.67;100.00
34921;BME280;21128;50.016;20.002;2022-12-31T01:42:53;98960.34;;;0.68;100.00
34921;BME280;21128;50.016;20.002;2022-12-31T01:45:41;98963.81;;;0.67;100.00
34921;BME280;21128;50.016;20.002;2022-12-31T01:48:28;98959.42;;;0.69;100.00
34921;BME280;21128;50.016;20.002;2022-12-31T01:51:14;98952.42;;;0.71;100.00
34921;BME280;21128;50.016;20.002;2022-12-31T01:54:02;98957.42;;;0.74;100.00
34921;BME280;21128;50.016;20.002;2022-12-31T01:56:52;98963.38;;;0.76;100.00
34921;BME280;21128;50.016;20.002;2022-12-31T01:59:39;98965.80;;;0.79;100.00
34921;BME280;21128;50.016;20.002;2022-12-31T02:02:32;98972.42;;;0.85;100.00
34921;BME280;21128;50.016;20.002;2022-12-31T02:08:27;98963.36;;;0.94;100.00
34921;BME280;21128;50.016;20.002;2022-12-31T02:11:33;98950.25;;;0.97;100.00
34921;BME280;21128;50.016;20.002;2022-12-31T02:14:43;98952.00;;;0.96;100.00
34921;BME280;21128;50.016;20.002;2022-12-31T02:17:46;98958.84;;;0.97;100.00
34921;BME280;21128;50.016;20.002;2022-12-31T02:21:11;98972.61;;;0.98;100.00
34921;BME280;21128;50.016;20.002;2022-12-31T02:24:26;98975.95;;;1.00;100.00
34921;BME280;21128;50.016;20.002;2022-12-31T02:30:55;98983.19;;;1.10;100.00
34921;BME280;21128;50.016;20.002;2022-12-31T02:34:01;98984.77;;;1.13;100.00
34921;BME280;21128;50.016;20.002;2022-12-31T02:36:53;98972.66;;;1.13;100.00
34921;BME280;21128;50.016;20.002;2022-12-31T02:39:42;98963.98;;;1.15;100.00
34921;BME280;21128;50.016;20.002;2022-12-31T02:42:28;98965.42;;;1.20;100.00
34921;BME280;21128;50.016;20.002;2022-12-31T02:45:18;98962.44;;;1.28;100.00
34921;BME280;21128;50.016;20.002;2022-12-31T02:51:14;98976.30;;;1.43;100.00
34921;BME280;21128;50.016;20.002;2022-12-31T02:54:32;98979.66;;;1.45;100.00
34921;BME280;21128;50.016;20.002;2022-12-31T02:57:34;98969.12;;;1.48;100.00
34921;BME280;21128;50.016;20.002;2022-12-31T03:00:30;98959.20;;;1.56;100.00
34921;BME280;21128;50.016;20.002;2022-12-31T03:03:42;98965.45;;;1.67;100.00
34921;BME280;21128;50.016;20.002;2022-12-31T03:06:28;98960.55;;;1.79;100.00
34921;BME280;21128;50.016;20.002;2022-12-31T03:09:14;98976.93;;;1.79;100.00
34921;BME280;21128;50.016;20.002;2022-12-31T03:12:02;98978.77;;;1.77;100.00
34921;BME280;21128;50.016;20.002;2022-12-31T03:20:54;98960.96;;;1.71;100.00
34921;BME280;21128;50.016;20.002;2022-12-31T03:23:58;98945.33;;;1.73;100.00
34921;BME280;21128;50.016;20.002;2022-12-31T03:27:03;98941.67;;;1.77;100.00
34921;BME280;21128;50.016;20.002;2022-12-31T03:29:49;98932.79;;;1.81;100.00
34921;BME280;21128;50.016;20.002;2022-12-31T03:32:35;98938.62;;;1.84;100.00
34921;BME280;21128;50.016;20.002;2022-12-31T03:35:22;98942.83;;;1.87;100.00
34921;BME280;21128;50.016;20.002;2022-12-31T03:38:09;98927.19;;;1.88;100.00
34921;BME280;21128;50.016;20.002;2022-12-31T03:40:56;98913.71;;;1.97;100.00
34921;BME280;21128;50.016;20.002;2022-12-31T03:43:41;98918.47;;;2.05;100.00
34921;BME280;21128;50.016;20.002;2022-12-31T03:46:27;98911.62;;;2.04;100.00
34921;BME280;21128;50.016;20.002;2022-12-31T03:49:13;98902.87;;;2.21;100.00
34921;BME280;21128;50.016;20.002;2022-12-31T03:51:58;98914.14;;;2.50;100.00
34921;BME280;21128;50.016;20.002;2022-12-31T03:54:44;98932.00;;;2.99;100.00
34921;BME280;21128;50.016;20.002;2022-12-31T03:57:37;98954.45;;;3.28;100.00
34921;BME280;21128;50.016;20.002;2022-12-31T04:00:23;98967.80;;;3.22;100.00
34921;BME280;21128;50.016;20.002;2022-12-31T04:03:15;98960.30;;;3.03;100.00
34921;BME280;21128;50.016;20.002;2022-12-31T04:06:01;98974.08;;;2.90;100.00
34921;BME280;21128;50.016;20.002;2022-12-31T04:08:54;98972.03;;;2.80;100.00
34921;BME280;21128;50.016;20.002;2022-12-31T04:11:40;98977.89;;;2.98;100.00
34921;BME280;21128;50.016;20.002;2022-12-31T04:14:45;98963.05;;;3.57;100.00
34921;BME280;21128;50.016;20.002;2022-12-31T04:17:32;98974.38;;;3.98;100.00
34921;BME280;21128;50.016;20.002;2022-12-31T04:20:17;98971.67;;;4.26;100.00
34921;BME280;21128;50.016;20.002;2022-12-31T04:23:03;98965.52;;;4.54;100.00
34921;BME280;21128;50.016;20.002;2022-12-31T04:25:49;98958.07;;;4.88;100.00
34921;BME280;21128;50.016;20.002;2022-12-31T04:28:34;98956.91;;;5.17;100.00
34921;BME280;21128;50.016;20.002;2022-12-31T04:31:20;98959.79;;;5.38;100.00
34921;BME280;21128;50.016;20.002;2022-12-31T04:34:06;98956.23;;;5.52;100.00
34921;BME280;21128;50.016;20.002;2022-12-31T04:36:51;98957.59;;;5.57;100.00
34921;BME280;21128;50.016;20.002;2022-12-31T04:39:43;98960.20;;;5.45;100.00
34921;BME280;21128;50.016;20.002;2022-12-31T04:42:29;98962.23;;;5.16;100.00
34921;BME280;21128;50.016;20.002;2022-12-31T04:45:14;98970.66;;;4.81;100.00
34921;BME280;21128;50.016;20.002;2022-12-31T04:48:00;98979.66;;;4.50;100.00
34921;BME280;21128;50.016;20.002;2022-12-31T04:50:46;98979.03;;;4.19;100.00
34921;BME280;21128;50.016;20.002;2022-12-31T04:53:32;98981.93;;;3.88;100.00
34921;BME280;21128;50.016;20.002;2022-12-31T04:56:18;98989.86;;;3.58;100.00
34921;BME280;21128;50.016;20.002;2022-12-31T04:59:04;98983.66;;;3.32;100.00
34921;BME280;21128;50.016;20.002;2022-12-31T05:01:50;98990.61;;;3.03;100.00
34921;BME280;21128;50.016;20.002;2022-12-31T05:04:45;98996.03;;;2.84;100.00
34921;BME280;21128;50.016;20.002;2022-12-31T05:07:31;99001.02;;;2.73;100.00
34921;BME280;21128;50.016;20.002;2022-12-31T05:10:23;99011.83;;;2.95;100.00
34921;BME280;21128;50.016;20.002;2022-12-31T05:13:09;99007.02;;;3.60;100.00
34921;BME280;21128;50.016;20.002;2022-12-31T05:16:15;99007.23;;;4.52;100.00
34921;BME280;21128;50.016;20.002;2022-12-31T05:19:01;98996.38;;;5.36;100.00
34921;BME280;21128;50.016;20.002;2022-12-31T05:21:47;98999.48;;;6.16;100.00
34921;BME280;21128;50.016;20.002;2022-12-31T05:25:00;98997.09;;;6.72;100.00
34921;BME280;21128;50.016;20.002;2022-12-31T05:27:46;98998.42;;;7.24;100.00
34921;BME280;21128;50.016;20.002;2022-12-31T05:30:32;99012.93;;;7.62;100.00
34921;BME280;21128;50.016;20.002;2022-12-31T05:33:18;98989.73;;;7.91;100.00
34921;BME280;21128;50.016;20.002;2022-12-31T05:36:04;98993.11;;;8.14;100.00
34921;BME280;21128;50.016;20.002;2022-12-31T05:38:50;98995.94;;;8.33;100.00
34921;BME280;21128;50.016;20.002;2022-12-31T05:41:36;99000.07;;;8.47;100.00
34921;BME280;21128;50.016;20.002;2022-12-31T05:44:21;98988.84;;;8.56;100.00
34921;BME280;21128;50.016;20.002;2022-12-31T05:47:06;98987.25;;;8.65;100.00
34921;BME280;21128;50.016;20.002;2022-12-31T05:49:52;98988.18;;;8.75;100.00
34921;BME280;21128;50.016;20.002;2022-12-31T05:52:38;98994.55;;;8.82;100.00
34921;BME280;21128;50.016;20.002;2022-12-31T05:55:24;98991.06;;;8.93;100.00
34921;BME280;21128;50.016;20.002;2022-12-31T05:58:09;98990.42;;;9.00;100.00
34921;BME280;21128;50.016;20.002;2022-12-31T06:00:54;98968.92;;;9.07;100.00
34921;BME280;21128;50.016;20.002;2022-12-31T06:03:40;98977.38;;;9.10;100.00
34921;BME280;21128;50.016;20.002;2022-12-31T06:06:42;98977.69;;;9.17;100.00
34921;BME280;21128;50.016;20.002;2022-12-31T06:09:28;98982.66;;;9.20;100.00
34921;BME280;21128;50.016;20.002;2022-12-31T06:12:13;98973.45;;;9.25;100.00
34921;BME280;21128;50.016;20.002;2022-12-31T06:15:18;98984.64;;;9.27;100.00
34921;BME280;21128;50.016;20.002;2022-12-31T06:18:10;98977.33;;;9.31;100.00
34921;BME280;21128;50.016;20.002;2022-12-31T06:21:03;99000.69;;;9.34;100.00
34921;BME280;21128;50.016;20.002;2022-12-31T06:23:49;99012.56;;;9.38;100.00
34921;BME280;21128;50.016;20.002;2022-12-31T06:26:35;99014.92;;;9.41;100.00
34921;BME280;21128;50.016;20.002;2022-12-31T06:29:21;99015.78;;;9.42;100.00
34921;BME280;21128;50.016;20.002;2022-12-31T06:32:07;99012.88;;;9.45;100.00
34921;BME280;21128;50.016;20.002;2022-12-31T06:34:52;99029.04;;;9.50;100.00
34921;BME280;21128;50.016;20.002;2022-12-31T06:37:38;99021.17;;;9.50;100.00
34921;BME280;21128;50.016;20.002;2022-12-31T06:40:30;99031.66;;;9.50;100.00
34921;BME280;21128;50.016;20.002;2022-12-31T06:43:19;99029.04;;;9.50;100.00
34921;BME280;21128;50.016;20.002;2022-12-31T06:46:06;99038.70;;;9.49;100.00
34921;BME280;21128;50.016;20.002;2022-12-31T06:48:53;99028.11;;;9.51;100.00
34921;BME280;21128;50.016;20.002;2022-12-31T06:51:45;99028.21;;;9.49;100.00
34921;BME280;21128;50.016;20.002;2022-12-31T06:54:32;99024.06;;;9.47;100.00
34921;BME280;21128;50.016;20.002;2022-12-31T06:57:25;99039.11;;;9.45;100.00
34921;BME280;21128;50.016;20.002;2022-12-31T07:00:11;99039.25;;;9.43;100.00
34921;BME280;21128;50.016;20.002;2022-12-31T07:21:42;99045.66;;;9.91;100.00
34921;BME280;21128;50.016;20.002;2022-12-31T07:24:28;99033.30;;;10.12;100.00
34921;BME280;21128;50.016;20.002;2022-12-31T07:30:59;99039.79;;;10.77;100.00
34921;BME280;21128;50.016;20.002;2022-12-31T07:34:01;99048.07;;;11.11;100.00
34921;BME280;21128;50.016;20.002;2022-12-31T07:37:25;99056.63;;;11.23;100.00
34921;BME280;21128;50.016;20.002;2022-12-31T07:40:53;99061.91;;;11.04;100.00
34921;BME280;21128;50.016;20.002;2022-12-31T07:47:00;99063.72;;;10.93;100.00
34921;BME280;21128;50.016;20.002;2022-12-31T07:49:47;99063.86;;;11.02;100.00
34921;BME280;21128;50.016;20.002;2022-12-31T07:52:33;99049.28;;;11.17;100.00
34921;BME280;21128;50.016;20.002;2022-12-31T07:55:19;99051.90;;;11.26;100.00
34921;BME280;21128;50.016;20.002;2022-12-31T08:05:05;99073.46;;;11.49;100.00
34921;BME280;21128;50.016;20.002;2022-12-31T08:11:20;99075.09;;;11.70;100.00
34921;BME280;21128;50.016;20.002;2022-12-31T08:14:12;99078.20;;;11.93;100.00
34921;BME280;21128;50.016;20.002;2022-12-31T08:17:04;99078.84;;;12.77;100.00
34921;BME280;21128;50.016;20.002;2022-12-31T08:19:50;99066.76;;;13.46;100.00
34921;BME280;21128;50.016;20.002;2022-12-31T08:26:10;99052.78;;;14.22;97.25
34921;BME280;21128;50.016;20.002;2022-12-31T08:29:42;99065.80;;;14.57;95.18
34921;BME280;21128;50.016;20.002;2022-12-31T08:35:46;99053.29;;;15.08;89.70
34921;BME280;21128;50.016;20.002;2022-12-31T08:38:42;99067.00;;;15.28;89.35
34921;BME280;21128;50.016;20.002;2022-12-31T08:41:44;99061.05;;;15.42;91.36
34921;BME280;21128;50.016;20.002;2022-12-31T08:50:28;99063.03;;;15.48;87.49
34921;BME280;21128;50.016;20.002;2022-12-31T08:53:14;99075.46;;;15.15;86.17
34921;BME280;21128;50.016;20.002;2022-12-31T08:56:12;99078.56;;;14.86;87.99
34921;BME280;21128;50.016;20.002;2022-12-31T08:59:35;99077.18;;;14.50;88.89
34921;BME280;21128;50.016;20.002;2022-12-31T09:02:39;99082.71;;;14.81;88.70
34921;BME280;21128;50.016;20.002;2022-12-31T09:05:55;99095.23;;;14.28;88.95
34921;BME280;21128;50.016;20.002;2022-12-31T09:09:34;99083.31;;;13.82;90.17
34921;BME280;21128;50.016;20.002;2022-12-31T09:12:13;99081.51;;;13.57;91.07
34921;BME280;21128;50.016;20.002;2022-12-31T09:15:42;99090.08;;;13.33;92.17
34921;BME280;21128;50.016;20.002;2022-12-31T09:18:33;99092.87;;;13.13;92.14
34921;BME280;21128;50.016;20.002;2022-12-31T09:21:29;99076.73;;;12.99;92.76
34921;BME280;21128;50.016;20.002;2022-12-31T09:24:24;99091.97;;;12.87;93.91
34921;BME280;21128;50.016;20.002;2022-12-31T09:27:20;99087.81;;;12.84;93.93
34921;BME280;21128;50.016;20.002;2022-12-31T09:30:10;99074.78;;;12.83;94.10
34921;BME280;21128;50.016;20.002;2022-12-31T09:33:39;99076.58;;;13.00;95.00
34921;BME280;21128;50.016;20.002;2022-12-31T09:36:29;99057.42;;;13.34;93.43
34921;BME280;21128;50.016;20.002;2022-12-31T09:39:43;99072.20;;;13.27;94.12
34921;BME280;21128;50.016;20.002;2022-12-31T09:42:51;99062.95;;;13.22;93.94
34921;BME280;21128;50.016;20.002;2022-12-31T09:51:32;99072.08;;;14.14;91.86
34921;BME280;21128;50.016;20.002;2022-12-31T09:57:33;99055.71;;;14.61;92.05
34921;BME280;21128;50.016;20.002;2022-12-31T10:10:28;99053.28;;;14.25;89.78
34921;BME280;21128;50.016;20.002;2022-12-31T10:17:14;99057.84;;;14.07;90.97
34921;BME280;21128;50.016;20.002;2022-12-31T10:23:39;99061.86;;;13.85;90.98
34921;BME280;21128;50.016;20.002;2022-12-31T10:35:53;99062.81;;;13.50;93.15
34921;BME280;21128;50.016;20.002;2022-12-31T10:42:34;99068.76;;;13.52;94.24
34921;BME280;21128;50.016;20.002;2022-12-31T10:45:42;99048.95;;;13.48;94.09
34921;BME280;21128;50.016;20.002;2022-12-31T10:51:57;99038.39;;;13.48;94.53
34921;BME280;21128;50.016;20.002;2022-12-31T11:01:23;99041.13;;;13.64;94.79
34921;BME280;21128;50.016;20.002;2022-12-31T11:07:24;99039.61;;;13.62;94.95
34921;BME280;21128;50.016;20.002;2022-12-31T11:23:33;99071.72;;;13.49;94.51
34921;BME280;21128;50.016;20.002;2022-12-31T11:30:20;99065.50;;;13.58;94.96
34921;BME280;21128;50.016;20.002;2022-12-31T11:36:42;99055.87;;;13.49;94.38
34921;BME280;21128;50.016;20.002;2022-12-31T11:43:11;99066.95;;;13.52;94.75
34921;BME280;21128;50.016;20.002;2022-12-31T11:46:25;99072.33;;;13.43;94.94
34921;BME280;21128;50.016;20.002;2022-12-31T11:52:36;99071.60;;;13.33;95.53
34921;BME280;21128;50.016;20.002;2022-12-31T11:55:39;99072.75;;;13.30;95.25
34921;BME280;21128;50.016;20.002;2022-12-31T11:58:28;99061.37;;;13.30;95.90
34921;BME280;21128;50.016;20.002;2022-12-31T12:01:21;99065.81;;;13.29;95.91
34921;BME280;21128;50.016;20.002;2022-12-31T12:04:09;99053.29;;;13.31;96.45
34921;BME280;21128;50.016;20.002;2022-12-31T12:06:55;99046.86;;;13.34;96.41
34921;BME280;21128;50.016;20.002;2022-12-31T12:09:43;99017.99;;;13.32;96.57
34921;BME280;21128;50.016;20.002;2022-12-31T12:12:40;99044.22;;;13.34;96.30
34921;BME280;21128;50.016;20.002;2022-12-31T12:15:43;99023.77;;;13.36;97.07
34921;BME280;21128;50.016;20.002;2022-12-31T12:18:47;99039.32;;;13.39;96.95
34921;BME280;21128;50.016;20.002;2022-12-31T12:21:33;99037.72;;;13.46;96.69
34921;BME280;21128;50.016;20.002;2022-12-31T12:24:29;99041.08;;;13.56;96.37
34921;BME280;21128;50.016;20.002;2022-12-31T12:27:23;99032.55;;;13.62;95.41
34921;BME280;21128;50.016;20.002;2022-12-31T12:30:36;99038.00;;;13.69;95.20
34921;BME280;21128;50.016;20.002;2022-12-31T12:33:22;99023.34;;;13.74;94.57
34921;BME280;21128;50.016;20.002;2022-12-31T12:36:13;99030.65;;;13.80;94.29
34921;BME280;21128;50.016;20.002;2022-12-31T12:39:06;99017.12;;;13.84;93.81
34921;BME280;21128;50.016;20.002;2022-12-31T12:42:18;99025.41;;;13.89;94.30
34921;BME280;21128;50.016;20.002;2022-12-31T12:45:09;99019.63;;;13.93;93.54
34921;BME280;21128;50.016;20.002;2022-12-31T12:48:01;99016.00;;;13.94;93.50
34921;BME280;21128;50.016;20.002;2022-12-31T12:50:50;99014.52;;;13.92;93.55
34921;BME280;21128;50.016;20.002;2022-12-31T12:53:55;99019.80;;;13.92;93.46
34921;BME280;21128;50.016;20.002;2022-12-31T12:57:06;99023.42;;;13.91;93.45
34921;BME280;21128;50.016;20.002;2022-12-31T13:06:25;99029.50;;;13.83;94.37
34921;BME280;21128;50.016;20.002;2022-12-31T13:15:33;99033.25;;;13.72;94.35
34921;BME280;21128;50.016;20.002;2022-12-31T13:27:33;99041.29;;;13.63;95.12
34921;BME280;21128;50.016;20.002;2022-12-31T13:30:23;99036.83;;;13.63;95.54
34921;BME280;21128;50.016;20.002;2022-12-31T13:33:16;99028.22;;;13.61;95.42
34921;BME280;21128;50.016;20.002;2022-12-31T13:36:07;99028.55;;;13.58;95.92
34921;BME280;21128;50.016;20.002;2022-12-31T13:39:01;99025.23;;;13.56;95.14
34921;BME280;21128;50.016;20.002;2022-12-31T13:42:15;99020.13;;;13.55;95.67
34921;BME280;21128;50.016;20.002;2022-12-31T13:45:12;99029.98;;;13.52;95.65
34921;BME280;21128;50.016;20.002;2022-12-31T13:48:07;99027.67;;;13.49;95.58
34921;BME280;21128;50.016;20.002;2022-12-31T13:51:06;99032.28;;;13.47;96.16
34921;BME280;21128;50.016;20.002;2022-12-31T13:54:12;99045.64;;;13.46;96.01
34921;BME280;21128;50.016;20.002;2022-12-31T14:06:10;99044.60;;;13.39;96.97
34921;BME280;21128;50.016;20.002;2022-12-31T14:08:59;99053.51;;;13.38;96.81
34921;BME280;21128;50.016;20.002;2022-12-31T14:11:55;99054.46;;;13.37;97.15
34921;BME280;21128;50.016;20.002;2022-12-31T14:18:22;99063.36;;;13.36;97.44
34921;BME280;21128;50.016;20.002;2022-12-31T14:21:17;99049.34;;;13.35;97.21
34921;BME280;21128;50.016;20.002;2022-12-31T14:27:18;99057.64;;;13.40;97.36
34921;BME280;21128;50.016;20.002;2022-12-31T14:30:12;99047.08;;;13.40;97.42
34921;BME280;21128;50.016;20.002;2022-12-31T14:36:27;99055.00;;;13.40;97.75
34921;BME280;21128;50.016;20.002;2022-12-31T14:58:01;99070.27;;;13.29;97.79
34921;BME280;21128;50.016;20.002;2022-12-31T15:00:56;99075.55;;;13.29;97.53
34921;BME280;21128;50.016;20.002;2022-12-31T15:03:42;99069.57;;;13.27;98.18
34921;BME280;21128;50.016;20.002;2022-12-31T15:06:50;99066.93;;;13.27;98.18
34921;BME280;21128;50.016;20.002;2022-12-31T15:09:55;99071.09;;;13.29;97.59
34921;BME280;21128;50.016;20.002;2022-12-31T15:13:04;99068.45;;;13.29;97.92
34921;BME280;21128;50.016;20.002;2022-12-31T15:16:20;99075.55;;;13.29;98.06
34921;BME280;21128;50.016;20.002;2022-12-31T15:25:36;99069.73;;;13.25;97.90
34921;BME280;21128;50.016;20.002;2022-12-31T15:28:37;99064.45;;;13.25;98.00
34921;BME280;21128;50.016;20.002;2022-12-31T15:31:24;99075.00;;;13.25;97.58
34921;BME280;21128;50.016;20.002;2022-12-31T15:38:02;99082.77;;;13.27;97.73
34921;BME280;21128;50.016;20.002;2022-12-31T15:40:50;99083.46;;;13.29;97.90
34921;BME280;21128;50.016;20.002;2022-12-31T15:43:47;99085.78;;;13.32;97.40
34921;BME280;21128;50.016;20.002;2022-12-31T15:46:37;99096.02;;;13.35;96.95
34921;BME280;21128;50.016;20.002;2022-12-31T15:49:31;99096.69;;;13.37;97.44
34921;BME280;21128;50.016;20.002;2022-12-31T15:52:29;99095.42;;;13.41;97.42
34921;BME280;21128;50.016;20.002;2022-12-31T15:55:24;99091.12;;;13.40;97.42
34921;BME280;21128;50.016;20.002;2022-12-31T15:58:15;99102.35;;;13.42;97.56
34921;BME280;21128;50.016;20.002;2022-12-31T16:01:22;99097.89;;;13.42;97.67
34921;BME280;21128;50.016;20.002;2022-12-31T16:04:22;99089.98;;;13.42;97.46
34921;BME280;21128;50.016;20.002;2022-12-31T16:07:10;99107.47;;;13.43;96.94
34921;BME280;21128;50.016;20.002;2022-12-31T16:09:58;99090.80;;;13.43;97.75
34921;BME280;21128;50.016;20.002;2022-12-31T16:12:47;99085.37;;;13.44;97.41
34921;BME280;21128;50.016;20.002;2022-12-31T16:15:40;99095.80;;;13.46;97.30
34921;BME280;21128;50.016;20.002;2022-12-31T16:18:41;99096.63;;;13.46;96.78
34921;BME280;21128;50.016;20.002;2022-12-31T16:21:32;99102.57;;;13.48;96.98
34921;BME280;21128;50.016;20.002;2022-12-31T16:27:18;99102.57;;;13.48;97.48
34921;BME280;21128;50.016;20.002;2022-12-31T16:30:14;99104.38;;;13.48;97.45
34921;BME280;21128;50.016;20.002;2022-12-31T16:33:04;99109.82;;;13.46;97.17
34921;BME280;21128;50.016;20.002;2022-12-31T16:36:00;99115.93;;;13.47;96.84
34921;BME280;21128;50.016;20.002;2022-12-31T16:38:46;99112.46;;;13.46;97.33
34921;BME280;21128;50.016;20.002;2022-12-31T16:41:42;99120.38;;;13.46;96.65
34921;BME280;21128;50.016;20.002;2022-12-31T16:44:29;99124.36;;;13.50;97.25
34921;BME280;21128;50.016;20.002;2022-12-31T16:50:19;99127.53;;;13.54;97.10
34921;BME280;21128;50.016;20.002;2022-12-31T16:53:15;99127.53;;;13.54;96.85
34921;BME280;21128;50.016;20.002;2022-12-31T16:56:09;99131.52;;;13.58;96.38
34921;BME280;21128;50.016;20.002;2022-12-31T16:59:00;99136.19;;;13.64;96.52
34921;BME280;21128;50.016;20.002;2022-12-31T17:01:47;99139.49;;;13.66;96.41
34921;BME280;21128;50.016;20.002;2022-12-31T17:04:34;99142.80;;;13.68;96.59
34921;BME280;21128;50.016;20.002;2022-12-31T17:10:22;99135.92;;;13.75;96.25
34921;BME280;21128;50.016;20.002;2022-12-31T17:13:29;99142.86;;;13.76;95.88
34921;BME280;21128;50.016;20.002;2022-12-31T17:16:24;99133.81;;;13.79;95.90
34921;BME280;21128;50.016;20.002;2022-12-31T17:19:46;99130.69;;;13.84;95.38
34921;BME280;21128;50.016;20.002;2022-12-31T17:22:39;99129.91;;;13.91;95.22
34921;BME280;21128;50.016;20.002;2022-12-31T17:25:29;99135.70;;;13.95;95.08
34921;BME280;21128;50.016;20.002;2022-12-31T17:28:25;99137.39;;;13.96;94.96
34921;BME280;21128;50.016;20.002;2022-12-31T17:31:27;99134.42;;;13.99;94.65
34921;BME280;21128;50.016;20.002;2022-12-31T17:34:21;99119.56;;;13.98;95.29
34921;BME280;21128;50.016;20.002;2022-12-31T17:39:54;99123.53;;;14.02;94.48
34921;BME280;21128;50.016;20.002;2022-12-31T17:42:45;99124.19;;;14.04;93.97
34921;BME280;21128;50.016;20.002;2022-12-31T17:45:35;99123.90;;;14.07;93.80
34921;BME280;21128;50.016;20.002;2022-12-31T17:48:22;99136.48;;;14.13;93.69
34921;BME280;21128;50.016;20.002;2022-12-31T17:51:11;99129.06;;;14.17;93.34
34921;BME280;21128;50.016;20.002;2022-12-31T17:53:59;99146.73;;;14.16;93.11
34921;BME280;21128;50.016;20.002;2022-12-31T17:56:45;99135.17;;;14.17;92.65
34921;BME280;21128;50.016;20.002;2022-12-31T17:59:32;99141.13;;;14.19;93.40
34921;BME280;21128;50.016;20.002;2022-12-31T18:02:19;99142.11;;;14.18;93.07
34921;BME280;21128;50.016;20.002;2022-12-31T18:05:13;99142.77;;;14.20;92.55
34921;BME280;21128;50.016;20.002;2022-12-31T18:08:06;99141.81;;;14.21;92.17
34921;BME280;21128;50.016;20.002;2022-12-31T18:10:53;99132.07;;;14.22;92.22
34921;BME280;21128;50.016;20.002;2022-12-31T18:13:38;99134.55;;;14.23;91.87
34921;BME280;21128;50.016;20.002;2022-12-31T18:16:38;99146.94;;;14.23;91.84
34921;BME280;21128;50.016;20.002;2022-12-31T18:19:23;99146.11;;;14.22;91.58
34921;BME280;21128;50.016;20.002;2022-12-31T18:22:14;99137.86;;;14.25;91.43
34921;BME280;21128;50.016;20.002;2022-12-31T18:25:00;99145.63;;;14.27;91.56
34921;BME280;21128;50.016;20.002;2022-12-31T18:27:47;99131.42;;;14.28;91.85
34921;BME280;21128;50.016;20.002;2022-12-31T18:30:39;99138.36;;;14.29;91.54
34921;BME280;21128;50.016;20.002;2022-12-31T18:33:26;99129.77;;;14.27;91.00
34921;BME280;21128;50.016;20.002;2022-12-31T18:36:14;99140.87;;;14.30;90.86
34921;BME280;21128;50.016;20.002;2022-12-31T18:39:00;99136.91;;;14.34;90.47
34921;BME280;21128;50.016;20.002;2022-12-31T18:41:47;99141.86;;;14.37;90.66
34921;BME280;21128;50.016;20.002;2022-12-31T18:44:33;99132.14;;;14.38;90.97
34921;BME280;21128;50.016;20.002;2022-12-31T18:47:21;99130.33;;;14.39;90.02
34921;BME280;21128;50.016;20.002;2022-12-31T18:50:15;99148.50;;;14.42;89.78